Armstrong, PA

8:48 AM EDT on July 29, 2016 (GMT -0400)
Vallamont | | Change Station

Elev 568 ft 41.25 °N, 77.01 °W | Updated 33 seconds ago

Scattered Clouds
Scattered Clouds
74.1 °F
Feels Like 74 °F
N
2.2
Wind Variable Wind from SSW

Today
High -- | Low -- °F
--% Chance of Precip.
Yesterday
High -- | Low -- °F
Precip. -- in
Pressure 29.88 in
Visibility 7.0 miles
Clouds Scattered Clouds 500 ft
Heat Index 74 °F
Dew Point 69 °F
Humidity 85%
Rainfall 0.00 in
Snow Depth Not available.
6:00 AM 8:27 PM
Waning Crescent, 22% visible
METAR KIPT 291154Z 27008KT 7SM SCT005 22/19 A2989 RMK AO2 SLP117 60000 T02220194 10222 20206 53019
Pressure 29.88 in
Visibility 7.0 miles
Clouds Scattered Clouds 500 ft
Heat Index 74 °F
Dew Point 69 °F
Humidity 85%
Rainfall 0.00 in
Snow Depth Not available.
6:00 AM 8:27 PM
Waning Crescent, 22% visible
METAR KIPT 291154Z 27008KT 7SM SCT005 22/19 A2989 RMK AO2 SLP117 60000 T02220194 10222 20206 53019

10-Day Weather Forecast

Almanac

Astronomy

Jul. 29, 2016 Rise Set
Actual Time
Civil Twilight
Nautical Twilight
Astronomical Twilight
Moon
Length of Visible Light
Length of Day
Tomorrow will be .
, % of the Moon is Illuminated

Today's Extremes

State Highs State Lows

Community

WunderPhotos

Upload Photos

1,928,335 photos uploaded!

WunderBlog® & News

Nearby

Air Quality

  Air Quality AQ Index Pollutant
Not available.

Snow Depth

Station Depth Elevation

Earthquake Activity

City Distance Mag. Time & Date
Minimum magnitude displayed is 2.5.

Coastal Water Temperatures

Place Temperature

Stations

Nearby Weather Stations

Station Location Temp. Windchill Dew Point Humidity Wind Precip. Elev Updated Type
                   

Watches & Warnings

There are currently no watches in effect.